createdAt,value
2022-09-21T04:00:31.264Z,6.49
2022-09-21T04:04:33.741Z,6.67
2022-09-21T04:08:36.375Z,6.66
2022-09-21T04:12:38.859Z,6.64
2022-09-21T04:16:42.721Z,6.59
2022-09-21T04:20:45.214Z,6.61
2022-09-21T04:24:47.691Z,6.79
2022-09-21T04:28:50.709Z,6.72
2022-09-21T04:32:54.509Z,6.72
2022-09-21T04:36:56.995Z,6.81
2022-09-21T04:41:00.222Z,6.89
2022-09-21T04:45:02.690Z,6.83
2022-09-21T04:49:06.501Z,6.83
2022-09-21T04:53:09.294Z,6.65
2022-09-21T04:57:11.754Z,6.59
2022-09-21T05:01:14.299Z,6.54
2022-09-21T05:05:18.145Z,6.55
2022-09-21T05:09:40.529Z,6.49
2022-09-21T05:13:43.645Z,6.56
2022-09-21T05:17:46.645Z,6.60
2022-09-21T05:21:50.429Z,6.77
2022-09-21T05:25:52.914Z,6.84
2022-09-21T05:29:55.854Z,6.98
2022-09-21T05:34:04.065Z,7.09
2022-09-21T05:38:13.955Z,7.20
2022-09-21T05:42:16.890Z,7.20
2022-09-21T05:46:21.783Z,7.33
2022-09-21T05:50:41.937Z,7.44
2022-09-21T05:54:57.685Z,7.57
2022-09-21T05:59:10.156Z,7.61
2022-09-21T06:03:28.021Z,7.48
2022-09-21T06:07:30.498Z,7.52
2022-09-21T06:11:34.691Z,7.74
2022-09-21T06:15:38.470Z,7.91
2022-09-21T06:19:40.987Z,7.92
2022-09-21T06:23:43.464Z,8.09
2022-09-21T06:27:47.263Z,8.25
2022-09-21T06:31:49.903Z,8.40
2022-09-21T06:35:53.850Z,8.47
2022-09-21T06:39:56.331Z,8.65
2022-09-21T06:44:00.157Z,8.81
2022-09-21T06:48:03.105Z,8.87
2022-09-21T06:52:05.730Z,8.85
2022-09-21T06:56:10.749Z,8.78
2022-09-21T07:00:15.569Z,8.78
2022-09-21T07:04:21.943Z,8.67
2022-09-21T07:12:52.209Z,8.99
2022-09-21T07:16:56.017Z,9.10
2022-09-21T07:20:58.493Z,9.09
2022-09-21T07:25:01.588Z,9.28
2022-09-21T07:29:04.114Z,9.50
2022-09-21T07:33:08.714Z,9.71
2022-09-21T07:37:11.639Z,9.89
2022-09-21T07:41:15.182Z,10.07
2022-09-21T07:45:17.627Z,10.32
2022-09-21T07:49:21.424Z,10.20
2022-09-21T07:53:23.919Z,10.34
2022-09-21T07:57:44.068Z,10.47
2022-09-21T08:01:46.640Z,10.72
2022-09-21T08:05:51.078Z,10.92
2022-09-21T08:09:53.551Z,11.08
2022-09-21T08:13:58.273Z,11.39
2022-09-21T08:18:01.231Z,11.28
2022-09-21T08:22:05.195Z,11.51
2022-09-21T08:26:08.917Z,12.03
2022-09-21T08:30:13.635Z,12.21
2022-09-21T08:34:16.127Z,12.32
2022-09-21T08:38:20.305Z,12.38
2022-09-21T08:42:41.446Z,12.51
2022-09-21T08:46:46.728Z,12.26
2022-09-21T08:50:53.574Z,12.51
2022-09-21T08:55:01.151Z,12.81
2022-09-21T08:59:03.723Z,13.04
2022-09-21T09:03:20.582Z,13.43
2022-09-21T09:07:38.787Z,13.48
2022-09-21T09:12:11.061Z,13.47
2022-09-21T09:16:23.160Z,13.20
2022-09-21T09:20:31.847Z,13.46
2022-09-21T09:24:39.870Z,14.02
2022-09-21T09:28:53.080Z,13.91
2022-09-21T09:33:01.278Z,13.97
2022-09-21T09:37:13.162Z,14.04
2022-09-21T09:41:29.990Z,14.21
2022-09-21T09:45:50.459Z,14.31
2022-09-21T09:50:05.435Z,14.31
2022-09-21T09:54:14.939Z,14.40
2022-09-21T09:58:20.344Z,14.45
2022-09-21T10:02:26.443Z,15.00
2022-09-21T10:06:33.019Z,15.25
2022-09-21T10:10:37.793Z,15.29
2022-09-21T10:14:40.367Z,15.46
2022-09-21T10:18:49.417Z,15.59
2022-09-21T10:22:57.022Z,15.79
2022-09-21T10:27:06.261Z,15.92
2022-09-21T10:31:18.834Z,16.23
2022-09-21T10:35:22.883Z,16.20
2022-09-21T10:39:28.963Z,16.06
2022-09-21T10:43:39.840Z,16.31
2022-09-21T10:47:48.324Z,15.98
2022-09-21T10:51:54.276Z,15.98
2022-09-21T10:56:17.932Z,15.74
2022-09-21T11:00:36.347Z,15.63
2022-09-21T11:04:44.142Z,15.51
2022-09-21T11:08:54.469Z,15.33
2022-09-21T11:13:07.705Z,15.56
2022-09-21T11:17:18.423Z,15.83
2022-09-21T11:21:31.429Z,15.98
2022-09-21T11:25:43.504Z,16.21
2022-09-21T11:29:56.267Z,16.49
2022-09-21T11:34:16.468Z,16.55
2022-09-21T11:38:33.713Z,16.87
2022-09-21T11:42:49.301Z,17.11
2022-09-21T11:47:04.698Z,17.52
2022-09-21T11:51:20.795Z,17.87
2022-09-21T11:56:05.280Z,17.57
2022-09-21T12:00:17.173Z,17.95
2022-09-21T12:04:43.199Z,18.22
2022-09-21T12:08:58.103Z,18.96
2022-09-21T12:13:07.402Z,19.25
2022-09-21T12:17:18.243Z,19.60
2022-09-21T12:21:23.946Z,19.41
2022-09-21T12:25:30.993Z,19.43
2022-09-21T12:29:39.006Z,19.53
2022-09-21T12:33:47.897Z,19.62
2022-09-21T12:37:55.638Z,20.03
2022-09-21T12:42:03.479Z,19.98
2022-09-21T12:46:12.754Z,19.93
2022-09-21T12:50:22.709Z,19.71
2022-09-21T12:54:33.054Z,18.99
2022-09-21T12:58:50.652Z,19.08
2022-09-21T13:02:58.158Z,18.34
2022-09-21T13:07:37.321Z,18.82
2022-09-21T13:11:52.484Z,18.87
2022-09-21T13:15:55.650Z,18.48
2022-09-21T13:20:02.010Z,18.81
2022-09-21T13:24:08.600Z,18.64
2022-09-21T13:28:24.078Z,18.84
2022-09-21T13:32:54.650Z,19.13
2022-09-21T13:37:28.111Z,19.27
2022-09-21T13:41:51.699Z,19.36
2022-09-21T13:45:59.397Z,19.58
2022-09-21T13:50:13.262Z,19.24
2022-09-21T13:54:15.932Z,19.58
2022-09-21T13:58:23.652Z,19.62
2022-09-21T14:02:33.025Z,19.10
2022-09-21T14:06:44.717Z,19.57
2022-09-21T14:10:52.885Z,19.73
2022-09-21T14:15:12.737Z,19.68
2022-09-21T14:20:05.399Z,19.50
2022-09-21T14:24:22.937Z,19.37
2022-09-21T14:28:35.415Z,19.28
2022-09-21T14:32:47.226Z,19.14
2022-09-21T14:36:53.019Z,18.78
2022-09-21T14:41:00.697Z,19.12
2022-09-21T14:45:04.107Z,19.16
2022-09-21T14:49:19.660Z,19.06
2022-09-21T14:53:55.787Z,18.55
2022-09-21T14:58:19.350Z,18.15
2022-09-21T15:02:23.483Z,18.18
2022-09-21T15:06:49.546Z,18.10
2022-09-21T15:11:00.984Z,18.64
2022-09-21T15:15:20.253Z,18.85
2022-09-21T15:19:25.543Z,19.31
2022-09-21T15:23:29.691Z,19.53
2022-09-21T15:27:33.955Z,19.15
2022-09-21T15:31:40.079Z,19.64
2022-09-21T15:35:47.575Z,20.02
2022-09-21T15:40:00.881Z,19.40
2022-09-21T15:44:07.280Z,19.22
2022-09-21T15:48:13.159Z,19.35
2022-09-21T15:52:24.112Z,19.18
2022-09-21T15:56:28.628Z,19.00
2022-09-21T16:00:39.878Z,19.01
2022-09-21T16:04:49.233Z,19.01
2022-09-21T16:08:52.591Z,18.97
2022-09-21T16:13:02.038Z,18.73
2022-09-21T16:17:21.822Z,18.63
2022-09-21T16:21:28.159Z,18.50
2022-09-21T16:25:37.074Z,18.19
2022-09-21T16:29:42.941Z,18.06
2022-09-21T16:34:02.273Z,18.33
2022-09-21T16:38:09.951Z,18.32
2022-09-21T16:42:13.562Z,18.23
2022-09-21T16:46:16.078Z,18.04
2022-09-21T16:50:18.898Z,17.73
2022-09-21T16:54:24.454Z,17.35
2022-09-21T16:58:27.241Z,17.08
2022-09-21T17:02:31.218Z,16.96
2022-09-21T17:06:36.711Z,16.59
2022-09-21T17:10:44.849Z,15.99
2022-09-21T17:14:47.701Z,15.63
2022-09-21T17:18:50.619Z,15.36
2022-09-21T17:22:53.262Z,15.16
2022-09-21T17:26:57.099Z,14.92
2022-09-21T17:31:00.692Z,14.78
2022-09-21T17:35:15.763Z,15.07
2022-09-21T17:39:19.483Z,14.77
2022-09-21T17:43:38.181Z,14.56
2022-09-21T17:47:41.930Z,14.31
2022-09-21T17:52:02.544Z,14.19
2022-09-21T17:56:29.156Z,13.84
2022-09-21T18:00:42.424Z,13.60
2022-09-21T18:04:46.224Z,13.44
2022-09-21T18:08:50.331Z,13.28
2022-09-21T18:13:20.259Z,13.08
2022-09-21T18:17:44.755Z,12.78
2022-09-21T18:21:52.718Z,12.48
2022-09-21T18:25:57.138Z,12.32
2022-09-21T18:30:00.173Z,11.99
2022-09-21T18:34:19.821Z,11.76
2022-09-21T18:38:28.818Z,11.60
2022-09-21T18:42:42.352Z,11.55
2022-09-21T18:46:56.011Z,11.59
2022-09-21T18:51:03.784Z,11.50
2022-09-21T18:55:18.424Z,11.50
2022-09-21T18:59:21.377Z,11.43
2022-09-21T19:03:24.651Z,11.39
2022-09-21T19:07:34.336Z,11.29
2022-09-21T19:11:47.859Z,10.93
2022-09-21T19:16:01.376Z,10.60
2022-09-21T19:20:24.169Z,10.36
2022-09-21T19:24:36.129Z,10.27
2022-09-21T19:29:00.935Z,10.24
2022-09-21T19:33:48.387Z,10.20
2022-09-21T19:37:49.235Z,10.19
2022-09-21T19:42:05.236Z,10.29
2022-09-21T19:46:19.894Z,9.98
2022-09-21T19:50:25.851Z,9.68
2022-09-21T19:54:46.623Z,9.63
2022-09-21T19:59:08.534Z,9.57
2022-09-21T20:03:15.677Z,9.58
2022-09-21T20:07:26.760Z,9.68
2022-09-21T20:11:38.947Z,9.69
2022-09-21T20:15:49.140Z,9.68
2022-09-21T20:19:55.927Z,9.60
2022-09-21T20:24:02.303Z,9.43
2022-09-21T20:28:06.142Z,9.31
2022-09-21T20:32:10.528Z,9.21
2022-09-21T20:36:13.074Z,9.02
2022-09-21T20:40:16.673Z,8.92
2022-09-21T20:44:19.175Z,8.75
2022-09-21T20:48:23.021Z,8.63
2022-09-21T20:52:25.699Z,8.60
2022-09-21T20:56:28.274Z,8.67
